sensor_id;sensor_type;location;lat;lon;timestamp;temperature;humidity
62339;DHT22;48368;53.406;6.214;2022-10-30T00:00:34;14.40;99.90
62339;DHT22;48368;53.406;6.214;2022-10-30T00:03:00;14.40;99.90
62339;DHT22;48368;53.406;6.214;2022-10-30T00:05:26;14.40;99.90
62339;DHT22;48368;53.406;6.214;2022-10-30T00:07:54;14.40;99.90
62339;DHT22;48368;53.406;6.214;2022-10-30T00:10:20;14.50;99.90
62339;DHT22;48368;53.406;6.214;2022-10-30T00:12:46;14.40;99.90
62339;DHT22;48368;53.406;6.214;2022-10-30T00:15:11;14.40;99.90
62339;DHT22;48368;53.406;6.214;2022-10-30T00:17:37;14.50;99.90
62339;DHT22;48368;53.406;6.214;2022-10-30T00:20:03;14.50;99.90
62339;DHT22;48368;53.406;6.214;2022-10-30T00:22:29;14.50;99.90
62339;DHT22;48368;53.406;6.214;2022-10-30T00:24:55;14.40;99.90
62339;DHT22;48368;53.406;6.214;2022-10-30T00:27:20;14.50;99.90
62339;DHT22;48368;53.406;6.214;2022-10-30T00:29:46;14.50;99.90
62339;DHT22;48368;53.406;6.214;2022-10-30T00:32:12;14.40;99.90
62339;DHT22;48368;53.406;6.214;2022-10-30T00:34:38;14.40;99.90
62339;DHT22;48368;53.406;6.214;2022-10-30T00:37:03;14.40;99.90
62339;DHT22;48368;53.406;6.214;2022-10-30T00:39:29;14.30;99.90
62339;DHT22;48368;53.406;6.214;2022-10-30T00:41:54;14.30;99.90
62339;DHT22;48368;53.406;6.214;2022-10-30T00:50:13;14.20;99.90
62339;DHT22;48368;53.406;6.214;2022-10-30T00:53:00;14.30;99.90
62339;DHT22;48368;53.406;6.214;2022-10-30T00:55:36;14.20;99.90
62339;DHT22;48368;53.406;6.214;2022-10-30T00:58:05;14.10;99.90
62339;DHT22;48368;53.406;6.214;2022-10-30T01:00:33;14.10;99.90
62339;DHT22;48368;53.406;6.214;2022-10-30T01:02:59;14.10;99.90
62339;DHT22;48368;53.406;6.214;2022-10-30T01:05:28;14.10;99.90
62339;DHT22;48368;53.406;6.214;2022-10-30T01:07:54;14.00;99.90
62339;DHT22;48368;53.406;6.214;2022-10-30T01:10:20;14.00;99.90
62339;DHT22;48368;53.406;6.214;2022-10-30T01:12:47;14.00;99.90
62339;DHT22;48368;53.406;6.214;2022-10-30T01:15:14;13.90;99.90
62339;DHT22;48368;53.406;6.214;2022-10-30T01:23:08;13.90;99.90
62339;DHT22;48368;53.406;6.214;2022-10-30T01:31:07;13.80;99.90
62339;DHT22;48368;53.406;6.214;2022-10-30T01:36:32;13.90;99.90
62339;DHT22;48368;53.406;6.214;2022-10-30T01:39:21;13.80;99.90
62339;DHT22;48368;53.406;6.214;2022-10-30T01:41:47;13.80;99.90
62339;DHT22;48368;53.406;6.214;2022-10-30T01:44:21;13.80;99.90
62339;DHT22;48368;53.406;6.214;2022-10-30T01:47:06;13.80;99.90
62339;DHT22;48368;53.406;6.214;2022-10-30T01:49:57;13.80;99.90
62339;DHT22;48368;53.406;6.214;2022-10-30T01:58:40;13.90;99.90
62339;DHT22;48368;53.406;6.214;2022-10-30T02:01:07;13.80;99.90
62339;DHT22;48368;53.406;6.214;2022-10-30T02:03:33;13.90;99.90
62339;DHT22;48368;53.406;6.214;2022-10-30T02:05:58;13.80;99.90
62339;DHT22;48368;53.406;6.214;2022-10-30T02:08:24;13.90;99.90
62339;DHT22;48368;53.406;6.214;2022-10-30T02:10:52;13.80;99.90
62339;DHT22;48368;53.406;6.214;2022-10-30T02:13:19;13.90;99.90
62339;DHT22;48368;53.406;6.214;2022-10-30T02:15:46;13.90;99.90
62339;DHT22;48368;53.406;6.214;2022-10-30T02:18:12;13.90;99.90
62339;DHT22;48368;53.406;6.214;2022-10-30T02:20:38;13.80;99.90
62339;DHT22;48368;53.406;6.214;2022-10-30T02:23:04;13.80;99.90
62339;DHT22;48368;53.406;6.214;2022-10-30T02:25:31;13.80;99.90
62339;DHT22;48368;53.406;6.214;2022-10-30T02:27:56;13.90;99.90
62339;DHT22;48368;53.406;6.214;2022-10-30T02:30:22;13.90;99.90
62339;DHT22;48368;53.406;6.214;2022-10-30T02:32:48;13.90;99.90
62339;DHT22;48368;53.406;6.214;2022-10-30T02:35:13;13.80;99.90
62339;DHT22;48368;53.406;6.214;2022-10-30T02:37:39;13.80;99.90
62339;DHT22;48368;53.406;6.214;2022-10-30T02:40:05;13.70;99.90
62339;DHT22;48368;53.406;6.214;2022-10-30T02:42:33;13.80;99.90
62339;DHT22;48368;53.406;6.214;2022-10-30T02:44:59;13.70;99.90
62339;DHT22;48368;53.406;6.214;2022-10-30T02:47:24;13.70;99.90
62339;DHT22;48368;53.406;6.214;2022-10-30T02:49:50;13.70;99.90
62339;DHT22;48368;53.406;6.214;2022-10-30T02:52:16;13.70;99.90
62339;DHT22;48368;53.406;6.214;2022-10-30T02:54:41;13.70;99.90
62339;DHT22;48368;53.406;6.214;2022-10-30T02:57:08;13.70;99.90
62339;DHT22;48368;53.406;6.214;2022-10-30T02:59:34;13.70;99.90
62339;DHT22;48368;53.406;6.214;2022-10-30T03:01:59;13.70;99.90
62339;DHT22;48368;53.406;6.214;2022-10-30T03:04:25;13.60;99.90
62339;DHT22;48368;53.406;6.214;2022-10-30T03:06:51;13.70;99.90
62339;DHT22;48368;53.406;6.214;2022-10-30T03:09:16;13.70;99.90
62339;DHT22;48368;53.406;6.214;2022-10-30T03:11:42;13.60;99.90
62339;DHT22;48368;53.406;6.214;2022-10-30T03:14:09;13.70;99.90
62339;DHT22;48368;53.406;6.214;2022-10-30T03:16:35;13.60;99.90
62339;DHT22;48368;53.406;6.214;2022-10-30T03:19:01;13.60;99.90
62339;DHT22;48368;53.406;6.214;2022-10-30T03:21:27;13.60;99.90
62339;DHT22;48368;53.406;6.214;2022-10-30T03:23:53;13.60;99.90
62339;DHT22;48368;53.406;6.214;2022-10-30T03:26:19;13.60;99.90
62339;DHT22;48368;53.406;6.214;2022-10-30T03:28:45;13.60;99.90
62339;DHT22;48368;53.406;6.214;2022-10-30T03:31:13;13.60;99.90
62339;DHT22;48368;53.406;6.214;2022-10-30T03:33:39;13.50;99.90
62339;DHT22;48368;53.406;6.214;2022-10-30T03:36:06;13.50;99.90
62339;DHT22;48368;53.406;6.214;2022-10-30T03:38:32;13.50;99.90
62339;DHT22;48368;53.406;6.214;2022-10-30T03:40:59;13.40;99.90
62339;DHT22;48368;53.406;6.214;2022-10-30T03:43:24;13.40;99.90
62339;DHT22;48368;53.406;6.214;2022-10-30T03:45:52;13.40;99.90
62339;DHT22;48368;53.406;6.214;2022-10-30T03:48:20;13.30;99.90
62339;DHT22;48368;53.406;6.214;2022-10-30T03:50:46;13.30;99.90
62339;DHT22;48368;53.406;6.214;2022-10-30T03:53:12;13.30;99.90
62339;DHT22;48368;53.406;6.214;2022-10-30T03:55:38;13.30;99.90
62339;DHT22;48368;53.406;6.214;2022-10-30T03:58:05;13.30;99.90
62339;DHT22;48368;53.406;6.214;2022-10-30T04:00:31;13.30;99.90
62339;DHT22;48368;53.406;6.214;2022-10-30T04:02:57;13.30;99.90
62339;DHT22;48368;53.406;6.214;2022-10-30T04:05:23;13.30;99.90
62339;DHT22;48368;53.406;6.214;2022-10-30T04:07:58;13.30;99.90
62339;DHT22;48368;53.406;6.214;2022-10-30T04:10:24;13.20;99.90
62339;DHT22;48368;53.406;6.214;2022-10-30T04:12:50;13.30;99.90
62339;DHT22;48368;53.406;6.214;2022-10-30T04:15:16;13.20;99.90
62339;DHT22;48368;53.406;6.214;2022-10-30T04:17:48;13.30;99.90
62339;DHT22;48368;53.406;6.214;2022-10-30T04:20:14;13.20;99.90
62339;DHT22;48368;53.406;6.214;2022-10-30T04:22:40;13.20;99.90
62339;DHT22;48368;53.406;6.214;2022-10-30T04:25:05;13.20;99.90
62339;DHT22;48368;53.406;6.214;2022-10-30T04:27:31;13.30;99.90
62339;DHT22;48368;53.406;6.214;2022-10-30T04:30:03;13.30;99.90
62339;DHT22;48368;53.406;6.214;2022-10-30T04:32:29;13.30;99.90
62339;DHT22;48368;53.406;6.214;2022-10-30T04:34:54;13.30;99.90
62339;DHT22;48368;53.406;6.214;2022-10-30T04:37:20;13.40;99.90
62339;DHT22;48368;53.406;6.214;2022-10-30T04:39:45;13.30;99.90
62339;DHT22;48368;53.406;6.214;2022-10-30T04:42:13;13.40;99.90
62339;DHT22;48368;53.406;6.214;2022-10-30T04:44:38;13.40;99.90
62339;DHT22;48368;53.406;6.214;2022-10-30T04:47:04;13.30;99.90
62339;DHT22;48368;53.406;6.214;2022-10-30T04:49:29;13.40;99.90
62339;DHT22;48368;53.406;6.214;2022-10-30T04:51:55;13.40;99.90
62339;DHT22;48368;53.406;6.214;2022-10-30T04:54:20;13.40;99.90
62339;DHT22;48368;53.406;6.214;2022-10-30T04:56:46;13.30;99.90
62339;DHT22;48368;53.406;6.214;2022-10-30T04:59:12;13.30;99.90
62339;DHT22;48368;53.406;6.214;2022-10-30T05:01:38;13.40;99.90
62339;DHT22;48368;53.406;6.214;2022-10-30T05:04:03;13.40;99.90
62339;DHT22;48368;53.406;6.214;2022-10-30T05:06:29;13.30;99.90
62339;DHT22;48368;53.406;6.214;2022-10-30T05:08:55;13.30;99.90
62339;DHT22;48368;53.406;6.214;2022-10-30T05:11:21;13.40;99.90
62339;DHT22;48368;53.406;6.214;2022-10-30T05:13:47;13.30;99.90
62339;DHT22;48368;53.406;6.214;2022-10-30T05:16:12;13.40;99.90
62339;DHT22;48368;53.406;6.214;2022-10-30T05:18:38;13.40;99.90
62339;DHT22;48368;53.406;6.214;2022-10-30T05:21:04;13.50;99.90
62339;DHT22;48368;53.406;6.214;2022-10-30T05:23:29;13.40;99.90
62339;DHT22;48368;53.406;6.214;2022-10-30T05:25:55;13.30;99.90
62339;DHT22;48368;53.406;6.214;2022-10-30T05:28:21;13.30;99.90
62339;DHT22;48368;53.406;6.214;2022-10-30T05:30:46;13.30;99.90
62339;DHT22;48368;53.406;6.214;2022-10-30T05:33:12;13.40;99.90
62339;DHT22;48368;53.406;6.214;2022-10-30T05:35:40;13.30;99.90
62339;DHT22;48368;53.406;6.214;2022-10-30T05:38:06;13.30;99.90
62339;DHT22;48368;53.406;6.214;2022-10-30T05:40:33;13.20;99.90
62339;DHT22;48368;53.406;6.214;2022-10-30T05:42:59;13.30;99.90
62339;DHT22;48368;53.406;6.214;2022-10-30T05:45:25;13.30;99.90
62339;DHT22;48368;53.406;6.214;2022-10-30T05:47:55;13.20;99.90
62339;DHT22;48368;53.406;6.214;2022-10-30T05:50:21;13.20;99.90
62339;DHT22;48368;53.406;6.214;2022-10-30T05:52:46;13.10;99.90
62339;DHT22;48368;53.406;6.214;2022-10-30T05:55:12;13.10;99.90
62339;DHT22;48368;53.406;6.214;2022-10-30T05:57:38;13.10;99.90
62339;DHT22;48368;53.406;6.214;2022-10-30T06:00:04;13.00;99.90
62339;DHT22;48368;53.406;6.214;2022-10-30T06:02:29;13.10;99.90
62339;DHT22;48368;53.406;6.214;2022-10-30T06:04:55;13.10;99.90
62339;DHT22;48368;53.406;6.214;2022-10-30T06:07:20;13.10;99.90
62339;DHT22;48368;53.406;6.214;2022-10-30T06:09:46;13.00;99.90
62339;DHT22;48368;53.406;6.214;2022-10-30T06:12:14;13.10;99.90
62339;DHT22;48368;53.406;6.214;2022-10-30T06:14:40;13.00;99.90
62339;DHT22;48368;53.406;6.214;2022-10-30T06:17:06;13.00;99.90
62339;DHT22;48368;53.406;6.214;2022-10-30T06:19:31;13.00;99.90
62339;DHT22;48368;53.406;6.214;2022-10-30T06:21:57;13.00;99.90
62339;DHT22;48368;53.406;6.214;2022-10-30T06:24:22;12.90;99.90
62339;DHT22;48368;53.406;6.214;2022-10-30T06:26:48;12.90;99.90
62339;DHT22;48368;53.406;6.214;2022-10-30T06:29:15;12.90;99.90
62339;DHT22;48368;53.406;6.214;2022-10-30T06:31:41;12.90;99.90
62339;DHT22;48368;53.406;6.214;2022-10-30T06:34:07;12.90;99.90
62339;DHT22;48368;53.406;6.214;2022-10-30T06:36:32;12.90;99.90
62339;DHT22;48368;53.406;6.214;2022-10-30T06:38:58;12.90;99.90
62339;DHT22;48368;53.406;6.214;2022-10-30T06:41:23;12.80;99.90
62339;DHT22;48368;53.406;6.214;2022-10-30T06:43:49;12.80;99.90
62339;DHT22;48368;53.406;6.214;2022-10-30T06:46:15;12.80;99.90
62339;DHT22;48368;53.406;6.214;2022-10-30T06:48:40;12.80;99.90
62339;DHT22;48368;53.406;6.214;2022-10-30T06:51:06;12.80;99.90
62339;DHT22;48368;53.406;6.214;2022-10-30T06:53:32;12.80;99.90
62339;DHT22;48368;53.406;6.214;2022-10-30T06:55:59;12.80;99.90
62339;DHT22;48368;53.406;6.214;2022-10-30T06:58:26;12.70;99.90
62339;DHT22;48368;53.406;6.214;2022-10-30T07:00:52;12.80;99.90
62339;DHT22;48368;53.406;6.214;2022-10-30T07:03:18;12.80;99.90
62339;DHT22;48368;53.406;6.214;2022-10-30T07:05:44;12.80;99.90
62339;DHT22;48368;53.406;6.214;2022-10-30T07:08:10;12.90;99.90
62339;DHT22;48368;53.406;6.214;2022-10-30T07:10:36;12.80;99.90
62339;DHT22;48368;53.406;6.214;2022-10-30T07:13:01;12.90;99.90
62339;DHT22;48368;53.406;6.214;2022-10-30T07:15:27;12.80;99.90
62339;DHT22;48368;53.406;6.214;2022-10-30T07:17:58;12.80;99.90
62339;DHT22;48368;53.406;6.214;2022-10-30T07:20:25;12.80;99.90
62339;DHT22;48368;53.406;6.214;2022-10-30T07:22:51;12.80;99.90
62339;DHT22;48368;53.406;6.214;2022-10-30T07:25:17;12.90;99.90
62339;DHT22;48368;53.406;6.214;2022-10-30T07:27:45;12.90;99.90
62339;DHT22;48368;53.406;6.214;2022-10-30T07:30:12;12.90;99.90
62339;DHT22;48368;53.406;6.214;2022-10-30T07:32:38;12.90;99.90
62339;DHT22;48368;53.406;6.214;2022-10-30T07:35:05;12.90;99.90
62339;DHT22;48368;53.406;6.214;2022-10-30T07:37:31;13.00;99.90
62339;DHT22;48368;53.406;6.214;2022-10-30T07:39:57;12.90;99.90
62339;DHT22;48368;53.406;6.214;2022-10-30T07:42:23;12.90;99.90
62339;DHT22;48368;53.406;6.214;2022-10-30T07:44:48;12.90;99.90
62339;DHT22;48368;53.406;6.214;2022-10-30T07:47:14;13.10;99.90
62339;DHT22;48368;53.406;6.214;2022-10-30T07:49:40;13.00;99.90
62339;DHT22;48368;53.406;6.214;2022-10-30T07:52:05;13.10;99.90
62339;DHT22;48368;53.406;6.214;2022-10-30T07:54:31;13.20;99.90
62339;DHT22;48368;53.406;6.214;2022-10-30T07:56:57;13.20;99.90
62339;DHT22;48368;53.406;6.214;2022-10-30T07:59:24;13.20;99.90
62339;DHT22;48368;53.406;6.214;2022-10-30T08:01:50;13.30;99.90
62339;DHT22;48368;53.406;6.214;2022-10-30T08:04:15;13.40;99.90
62339;DHT22;48368;53.406;6.214;2022-10-30T08:06:42;13.50;99.90
62339;DHT22;48368;53.406;6.214;2022-10-30T08:09:08;13.50;99.90
62339;DHT22;48368;53.406;6.214;2022-10-30T08:11:34;13.50;99.90
62339;DHT22;48368;53.406;6.214;2022-10-30T08:14:00;13.60;99.90
62339;DHT22;48368;53.406;6.214;2022-10-30T08:16:26;13.80;99.90
62339;DHT22;48368;53.406;6.214;2022-10-30T08:18:52;13.70;99.90
62339;DHT22;48368;53.406;6.214;2022-10-30T08:21:17;13.80;99.90
62339;DHT22;48368;53.406;6.214;2022-10-30T08:23:43;13.90;99.90
62339;DHT22;48368;53.406;6.214;2022-10-30T08:26:09;14.00;99.90
62339;DHT22;48368;53.406;6.214;2022-10-30T08:28:34;14.00;99.90
62339;DHT22;48368;53.406;6.214;2022-10-30T08:31:01;14.00;99.90
62339;DHT22;48368;53.406;6.214;2022-10-30T08:33:27;14.10;99.90
62339;DHT22;48368;53.406;6.214;2022-10-30T08:35:55;14.20;99.90
62339;DHT22;48368;53.406;6.214;2022-10-30T08:38:21;14.10;99.90
62339;DHT22;48368;53.406;6.214;2022-10-30T08:40:47;14.30;99.90
62339;DHT22;48368;53.406;6.214;2022-10-30T08:43:13;14.30;99.90
62339;DHT22;48368;53.406;6.214;2022-10-30T08:45:39;14.30;99.90
62339;DHT22;48368;53.406;6.214;2022-10-30T08:48:05;14.40;99.90
62339;DHT22;48368;53.406;6.214;2022-10-30T08:50:32;14.40;99.90
62339;DHT22;48368;53.406;6.214;2022-10-30T08:53:03;14.40;99.90
62339;DHT22;48368;53.406;6.214;2022-10-30T08:55:30;14.60;99.90
62339;DHT22;48368;53.406;6.214;2022-10-30T08:57:57;14.60;99.90
62339;DHT22;48368;53.406;6.214;2022-10-30T09:00:23;14.70;99.90
62339;DHT22;48368;53.406;6.214;2022-10-30T09:02:48;14.80;99.90
62339;DHT22;48368;53.406;6.214;2022-10-30T09:05:14;14.90;99.90
62339;DHT22;48368;53.406;6.214;2022-10-30T09:07:40;14.90;99.90
62339;DHT22;48368;53.406;6.214;2022-10-30T09:10:06;15.00;99.90
62339;DHT22;48368;53.406;6.214;2022-10-30T09:12:32;15.10;99.90
62339;DHT22;48368;53.406;6.214;2022-10-30T09:14:57;15.10;99.90
62339;DHT22;48368;53.406;6.214;2022-10-30T09:17:23;15.20;99.90
62339;DHT22;48368;53.406;6.214;2022-10-30T09:19:49;15.40;99.90
62339;DHT22;48368;53.406;6.214;2022-10-30T09:22:14;15.40;99.90
62339;DHT22;48368;53.406;6.214;2022-10-30T09:24:40;15.40;99.90
62339;DHT22;48368;53.406;6.214;2022-10-30T09:27:06;15.50;99.90
62339;DHT22;48368;53.406;6.214;2022-10-30T09:29:32;15.50;99.90
62339;DHT22;48368;53.406;6.214;2022-10-30T09:31:58;15.60;99.90
62339;DHT22;48368;53.406;6.214;2022-10-30T09:34:24;15.60;99.90
62339;DHT22;48368;53.406;6.214;2022-10-30T09:36:49;15.70;99.90
62339;DHT22;48368;53.406;6.214;2022-10-30T09:39:15;15.70;99.90
62339;DHT22;48368;53.406;6.214;2022-10-30T09:41:44;15.80;99.90
62339;DHT22;48368;53.406;6.214;2022-10-30T09:50:05;16.00;99.90
62339;DHT22;48368;53.406;6.214;2022-10-30T09:52:39;16.10;99.90
62339;DHT22;48368;53.406;6.214;2022-10-30T09:55:32;16.20;99.90
62339;DHT22;48368;53.406;6.214;2022-10-30T10:06:18;16.70;99.90
62339;DHT22;48368;53.406;6.214;2022-10-30T10:08:52;16.80;99.90
62339;DHT22;48368;53.406;6.214;2022-10-30T10:11:23;16.80;99.90
62339;DHT22;48368;53.406;6.214;2022-10-30T10:16:30;17.10;99.90
62339;DHT22;48368;53.406;6.214;2022-10-30T10:21:28;17.20;99.90
62339;DHT22;48368;53.406;6.214;2022-10-30T10:24:02;17.20;99.90
62339;DHT22;48368;53.406;6.214;2022-10-30T10:26:48;17.40;99.90
62339;DHT22;48368;53.406;6.214;2022-10-30T10:32:16;17.50;99.90
62339;DHT22;48368;53.406;6.214;2022-10-30T10:51:12;18.00;99.90
62339;DHT22;48368;53.406;6.214;2022-10-30T10:56:15;18.10;99.90
62339;DHT22;48368;53.406;6.214;2022-10-30T10:58:50;18.20;99.90
62339;DHT22;48368;53.406;6.214;2022-10-30T11:01:29;18.30;99.90
62339;DHT22;48368;53.406;6.214;2022-10-30T11:04:01;18.30;99.90
62339;DHT22;48368;53.406;6.214;2022-10-30T11:06:33;18.40;99.90
62339;DHT22;48368;53.406;6.214;2022-10-30T11:09:16;18.40;99.90
62339;DHT22;48368;53.406;6.214;2022-10-30T11:11:46;18.40;99.90
62339;DHT22;48368;53.406;6.214;2022-10-30T11:14:24;18.40;99.90
62339;DHT22;48368;53.406;6.214;2022-10-30T11:17:24;18.40;99.90
62339;DHT22;48368;53.406;6.214;2022-10-30T11:19:56;18.50;99.90
62339;DHT22;48368;53.406;6.214;2022-10-30T11:22:28;18.40;99.90
62339;DHT22;48368;53.406;6.214;2022-10-30T11:24:55;18.40;99.90
62339;DHT22;48368;53.406;6.214;2022-10-30T11:29:50;18.50;99.90
62339;DHT22;48368;53.406;6.214;2022-10-30T11:32:19;18.60;99.90
62339;DHT22;48368;53.406;6.214;2022-10-30T11:34:59;18.50;99.90
62339;DHT22;48368;53.406;6.214;2022-10-30T11:37:32;18.60;99.90
62339;DHT22;48368;53.406;6.214;2022-10-30T11:42:51;18.70;99.90
62339;DHT22;48368;53.406;6.214;2022-10-30T11:45:32;18.70;99.90
62339;DHT22;48368;53.406;6.214;2022-10-30T11:47:59;18.70;99.90
62339;DHT22;48368;53.406;6.214;2022-10-30T11:50:28;18.80;99.90
62339;DHT22;48368;53.406;6.214;2022-10-30T11:52:57;18.80;99.90
62339;DHT22;48368;53.406;6.214;2022-10-30T11:55:26;18.90;99.90
62339;DHT22;48368;53.406;6.214;2022-10-30T11:57:55;18.90;99.90
62339;DHT22;48368;53.406;6.214;2022-10-30T12:00:29;18.90;99.90
62339;DHT22;48368;53.406;6.214;2022-10-30T12:02:57;18.90;99.90
62339;DHT22;48368;53.406;6.214;2022-10-30T12:07:51;18.90;99.90
62339;DHT22;48368;53.406;6.214;2022-10-30T12:10:28;18.90;99.90
62339;DHT22;48368;53.406;6.214;2022-10-30T12:12:54;19.00;99.90
62339;DHT22;48368;53.406;6.214;2022-10-30T12:15:24;19.10;99.90
62339;DHT22;48368;53.406;6.214;2022-10-30T12:17:52;19.00;99.90
62339;DHT22;48368;53.406;6.214;2022-10-30T12:20:19;19.20;99.90
62339;DHT22;48368;53.406;6.214;2022-10-30T12:22:45;19.10;99.90
62339;DHT22;48368;53.406;6.214;2022-10-30T12:27:47;19.10;99.90
62339;DHT22;48368;53.406;6.214;2022-10-30T12:30:18;19.10;99.90
62339;DHT22;48368;53.406;6.214;2022-10-30T12:33:09;19.00;99.90
62339;DHT22;48368;53.406;6.214;2022-10-30T12:35:45;19.10;99.90
62339;DHT22;48368;53.406;6.214;2022-10-30T12:41:04;19.20;99.90
62339;DHT22;48368;53.406;6.214;2022-10-30T12:43:34;19.20;99.90
62339;DHT22;48368;53.406;6.214;2022-10-30T12:46:28;19.30;99.90
62339;DHT22;48368;53.406;6.214;2022-10-30T12:49:14;19.20;99.90
62339;DHT22;48368;53.406;6.214;2022-10-30T12:56:45;19.20;99.90
62339;DHT22;48368;53.406;6.214;2022-10-30T13:01:53;19.20;99.90
62339;DHT22;48368;53.406;6.214;2022-10-30T13:04:30;19.10;99.90
62339;DHT22;48368;53.406;6.214;2022-10-30T13:07:07;19.10;99.90
62339;DHT22;48368;53.406;6.214;2022-10-30T13:12:24;19.10;99.90
62339;DHT22;48368;53.406;6.214;2022-10-30T13:14:55;19.10;99.90
62339;DHT22;48368;53.406;6.214;2022-10-30T13:17:22;19.10;99.90
62339;DHT22;48368;53.406;6.214;2022-10-30T13:19:48;19.10;99.90
62339;DHT22;48368;53.406;6.214;2022-10-30T13:27:46;19.10;99.90
62339;DHT22;48368;53.406;6.214;2022-10-30T13:30:18;19.00;99.90
62339;DHT22;48368;53.406;6.214;2022-10-30T13:33:21;19.00;99.90
62339;DHT22;48368;53.406;6.214;2022-10-30T13:36:05;19.10;99.90
62339;DHT22;48368;53.406;6.214;2022-10-30T13:41:26;19.00;99.90
62339;DHT22;48368;53.406;6.214;2022-10-30T13:49:41;18.90;99.90
62339;DHT22;48368;53.406;6.214;2022-10-30T13:52:17;18.90;99.90
62339;DHT22;48368;53.406;6.214;2022-10-30T14:00:22;18.70;99.90
62339;DHT22;48368;53.406;6.214;2022-10-30T14:03:23;18.80;99.90
62339;DHT22;48368;53.406;6.214;2022-10-30T14:06:17;18.80;99.90
62339;DHT22;48368;53.406;6.214;2022-10-30T14:08:53;18.70;99.90
62339;DHT22;48368;53.406;6.214;2022-10-30T14:11:22;18.60;99.90
62339;DHT22;48368;53.406;6.214;2022-10-30T14:13:55;18.60;99.90
62339;DHT22;48368;53.406;6.214;2022-10-30T14:16:40;18.60;99.90
62339;DHT22;48368;53.406;6.214;2022-10-30T14:19:08;18.50;99.90
62339;DHT22;48368;53.406;6.214;2022-10-30T14:21:53;18.60;99.90
62339;DHT22;48368;53.406;6.214;2022-10-30T14:24:32;18.60;99.90
62339;DHT22;48368;53.406;6.214;2022-10-30T14:37:12;18.50;99.90
62339;DHT22;48368;53.406;6.214;2022-10-30T14:39:42;18.40;99.90
62339;DHT22;48368;53.406;6.214;2022-10-30T14:42:29;18.40;99.90
62339;DHT22;48368;53.406;6.214;2022-10-30T14:48:08;18.30;99.90
62339;DHT22;48368;53.406;6.214;2022-10-30T14:50:54;18.30;99.90
62339;DHT22;48368;53.406;6.214;2022-10-30T14:53:51;18.30;99.90
62339;DHT22;48368;53.406;6.214;2022-10-30T14:56:39;18.20;99.90
62339;DHT22;48368;53.406;6.214;2022-10-30T14:59:23;18.20;99.90
62339;DHT22;48368;53.406;6.214;2022-10-30T15:05:00;18.20;99.90
62339;DHT22;48368;53.406;6.214;2022-10-30T15:08:00;18.10;99.90
62339;DHT22;48368;53.406;6.214;2022-10-30T15:10:33;18.00;99.90
62339;DHT22;48368;53.406;6.214;2022-10-30T15:13:06;18.00;99.90
62339;DHT22;48368;53.406;6.214;2022-10-30T15:15:33;17.90;99.90
62339;DHT22;48368;53.406;6.214;2022-10-30T15:18:02;17.90;99.90
62339;DHT22;48368;53.406;6.214;2022-10-30T15:20:32;17.80;99.90
62339;DHT22;48368;53.406;6.214;2022-10-30T15:23:09;17.80;99.90
62339;DHT22;48368;53.406;6.214;2022-10-30T15:25:48;17.80;99.90
62339;DHT22;48368;53.406;6.214;2022-10-30T15:28:20;17.70;99.90
62339;DHT22;48368;53.406;6.214;2022-10-30T15:31:22;17.60;99.90
62339;DHT22;48368;53.406;6.214;2022-10-30T15:33:49;17.50;99.90
62339;DHT22;48368;53.406;6.214;2022-10-30T15:36:20;17.50;99.90
62339;DHT22;48368;53.406;6.214;2022-10-30T15:39:05;17.50;99.90
62339;DHT22;48368;53.406;6.214;2022-10-30T15:41:33;17.40;99.90
62339;DHT22;48368;53.406;6.214;2022-10-30T15:44:00;17.30;99.90
62339;DHT22;48368;53.406;6.214;2022-10-30T15:46:26;17.30;99.90
62339;DHT22;48368;53.406;6.214;2022-10-30T15:48:51;17.20;99.90
62339;DHT22;48368;53.406;6.214;2022-10-30T15:51:20;17.10;99.90
62339;DHT22;48368;53.406;6.214;2022-10-30T21:54:26;13.70;99.90
62339;DHT22;48368;53.406;6.214;2022-10-30T21:56:51;13.60;99.90
62339;DHT22;48368;53.406;6.214;2022-10-30T21:59:17;13.60;99.90
62339;DHT22;48368;53.406;6.214;2022-10-30T22:01:43;13.60;99.90
62339;DHT22;48368;53.406;6.214;2022-10-30T22:04:10;13.60;99.90
62339;DHT22;48368;53.406;6.214;2022-10-30T22:06:40;13.50;99.90
62339;DHT22;48368;53.406;6.214;2022-10-30T22:09:06;13.40;99.90
62339;DHT22;48368;53.406;6.214;2022-10-30T22:11:32;13.40;99.90
62339;DHT22;48368;53.406;6.214;2022-10-30T22:14:00;13.40;99.90
62339;DHT22;48368;53.406;6.214;2022-10-30T22:16:27;13.40;99.90
62339;DHT22;48368;53.406;6.214;2022-10-30T22:18:53;13.30;99.90
62339;DHT22;48368;53.406;6.214;2022-10-30T22:21:19;13.30;99.90
62339;DHT22;48368;53.406;6.214;2022-10-30T22:23:45;13.30;99.90
62339;DHT22;48368;53.406;6.214;2022-10-30T22:26:13;13.20;99.90
62339;DHT22;48368;53.406;6.214;2022-10-30T22:28:39;13.20;99.90
62339;DHT22;48368;53.406;6.214;2022-10-30T22:31:16;13.10;99.90
62339;DHT22;48368;53.406;6.214;2022-10-30T22:33:42;13.10;99.90
62339;DHT22;48368;53.406;6.214;2022-10-30T22:36:23;13.00;99.90
62339;DHT22;48368;53.406;6.214;2022-10-30T22:38:54;13.00;99.90
62339;DHT22;48368;53.406;6.214;2022-10-30T22:41:22;13.00;99.90
62339;DHT22;48368;53.406;6.214;2022-10-30T22:43:48;13.00;99.90
62339;DHT22;48368;53.406;6.214;2022-10-30T22:46:16;12.90;99.90
62339;DHT22;48368;53.406;6.214;2022-10-30T22:48:42;12.90;99.90
62339;DHT22;48368;53.406;6.214;2022-10-30T22:51:10;12.90;99.90
62339;DHT22;48368;53.406;6.214;2022-10-30T22:53:36;12.70;99.90
62339;DHT22;48368;53.406;6.214;2022-10-30T22:56:18;12.70;99.90
62339;DHT22;48368;53.406;6.214;2022-10-30T22:58:45;12.60;99.90
62339;DHT22;48368;53.406;6.214;2022-10-30T23:01:14;12.60;99.90
62339;DHT22;48368;53.406;6.214;2022-10-30T23:03:40;12.50;99.90
62339;DHT22;48368;53.406;6.214;2022-10-30T23:06:06;12.40;99.90
62339;DHT22;48368;53.406;6.214;2022-10-30T23:08:31;12.40;99.90
62339;DHT22;48368;53.406;6.214;2022-10-30T23:10:57;12.40;99.90
62339;DHT22;48368;53.406;6.214;2022-10-30T23:13:23;12.40;99.90
62339;DHT22;48368;53.406;6.214;2022-10-30T23:15:49;12.40;99.90
62339;DHT22;48368;53.406;6.214;2022-10-30T23:18:15;12.30;99.90
62339;DHT22;48368;53.406;6.214;2022-10-30T23:20:41;12.30;99.90
62339;DHT22;48368;53.406;6.214;2022-10-30T23:23:07;12.20;99.90
62339;DHT22;48368;53.406;6.214;2022-10-30T23:25:33;12.30;99.90
62339;DHT22;48368;53.406;6.214;2022-10-30T23:27:59;12.30;99.90
62339;DHT22;48368;53.406;6.214;2022-10-30T23:30:25;12.30;99.90
62339;DHT22;48368;53.406;6.214;2022-10-30T23:32:51;12.40;99.90
62339;DHT22;48368;53.406;6.214;2022-10-30T23:35:16;12.30;99.90
62339;DHT22;48368;53.406;6.214;2022-10-30T23:37:42;12.30;99.90
62339;DHT22;48368;53.406;6.214;2022-10-30T23:40:08;12.40;99.90
62339;DHT22;48368;53.406;6.214;2022-10-30T23:42:34;12.30;99.90
62339;DHT22;48368;53.406;6.214;2022-10-30T23:44:59;12.40;99.90
62339;DHT22;48368;53.406;6.214;2022-10-30T23:47:25;12.40;99.90